sensor_id;sensor_type;location;lat;lon;timestamp;P1;durP1;ratioP1;P2;durP2;ratioP2
9288;SDS011;4683;50.864;12.086;2022-11-20T00:01:39;24.90;;;17.97;;
9288;SDS011;4683;50.864;12.086;2022-11-20T00:04:08;25.57;;;18.53;;
9288;SDS011;4683;50.864;12.086;2022-11-20T00:06:39;25.50;;;18.67;;
9288;SDS011;4683;50.864;12.086;2022-11-20T00:09:09;24.90;;;19.00;;
9288;SDS011;4683;50.864;12.086;2022-11-20T00:11:38;25.53;;;18.37;;
9288;SDS011;4683;50.864;12.086;2022-11-20T00:14:06;26.00;;;18.30;;
9288;SDS011;4683;50.864;12.086;2022-11-20T00:16:36;27.43;;;18.33;;
9288;SDS011;4683;50.864;12.086;2022-11-20T00:19:07;23.63;;;17.43;;
9288;SDS011;4683;50.864;12.086;2022-11-20T00:21:36;26.17;;;18.70;;
9288;SDS011;4683;50.864;12.086;2022-11-20T00:24:08;22.77;;;17.73;;
9288;SDS011;4683;50.864;12.086;2022-11-20T00:26:36;26.40;;;17.87;;
9288;SDS011;4683;50.864;12.086;2022-11-20T00:29:08;25.10;;;17.80;;
9288;SDS011;4683;50.864;12.086;2022-11-20T00:31:36;24.70;;;18.67;;
9288;SDS011;4683;50.864;12.086;2022-11-20T00:34:05;26.73;;;17.83;;
9288;SDS011;4683;50.864;12.086;2022-11-20T00:36:33;24.77;;;17.07;;
9288;SDS011;4683;50.864;12.086;2022-11-20T00:39:03;24.17;;;17.47;;
9288;SDS011;4683;50.864;12.086;2022-11-20T00:41:33;24.33;;;17.57;;
9288;SDS011;4683;50.864;12.086;2022-11-20T00:44:01;26.23;;;18.60;;
9288;SDS011;4683;50.864;12.086;2022-11-20T00:46:30;28.37;;;19.77;;
9288;SDS011;4683;50.864;12.086;2022-11-20T00:48:59;24.90;;;17.37;;
9288;SDS011;4683;50.864;12.086;2022-11-20T00:51:29;22.37;;;16.97;;
9288;SDS011;4683;50.864;12.086;2022-11-20T00:53:57;25.10;;;17.80;;
9288;SDS011;4683;50.864;12.086;2022-11-20T00:56:27;25.80;;;17.57;;
9288;SDS011;4683;50.864;12.086;2022-11-20T00:58:58;25.90;;;18.30;;
9288;SDS011;4683;50.864;12.086;2022-11-20T01:01:28;27.10;;;19.33;;
9288;SDS011;4683;50.864;12.086;2022-11-20T01:03:57;27.43;;;18.20;;
9288;SDS011;4683;50.864;12.086;2022-11-20T01:06:27;24.80;;;17.90;;
9288;SDS011;4683;50.864;12.086;2022-11-20T01:08:58;25.40;;;17.97;;
9288;SDS011;4683;50.864;12.086;2022-11-20T01:11:29;23.47;;;17.47;;
9288;SDS011;4683;50.864;12.086;2022-11-20T01:14:01;23.30;;;16.43;;
9288;SDS011;4683;50.864;12.086;2022-11-20T01:16:32;22.43;;;17.00;;
9288;SDS011;4683;50.864;12.086;2022-11-20T01:19:04;22.70;;;16.37;;
9288;SDS011;4683;50.864;12.086;2022-11-20T01:21:35;23.80;;;17.43;;
9288;SDS011;4683;50.864;12.086;2022-11-20T01:24:07;24.30;;;17.40;;
9288;SDS011;4683;50.864;12.086;2022-11-20T01:26:41;25.13;;;17.97;;
9288;SDS011;4683;50.864;12.086;2022-11-20T01:29:14;23.80;;;18.47;;
9288;SDS011;4683;50.864;12.086;2022-11-20T01:31:46;26.23;;;19.10;;
9288;SDS011;4683;50.864;12.086;2022-11-20T01:34:15;27.97;;;18.67;;
9288;SDS011;4683;50.864;12.086;2022-11-20T01:36:47;24.03;;;18.13;;
9288;SDS011;4683;50.864;12.086;2022-11-20T01:39:17;22.53;;;17.07;;
9288;SDS011;4683;50.864;12.086;2022-11-20T01:41:50;24.67;;;17.47;;
9288;SDS011;4683;50.864;12.086;2022-11-20T01:44:50;22.93;;;16.43;;
9288;SDS011;4683;50.864;12.086;2022-11-20T01:51:08;24.03;;;17.13;;
9288;SDS011;4683;50.864;12.086;2022-11-20T01:53:46;24.50;;;17.07;;
9288;SDS011;4683;50.864;12.086;2022-11-20T01:56:15;23.27;;;16.70;;
9288;SDS011;4683;50.864;12.086;2022-11-20T01:58:45;25.17;;;17.80;;
9288;SDS011;4683;50.864;12.086;2022-11-20T02:01:18;24.43;;;18.43;;
9288;SDS011;4683;50.864;12.086;2022-11-20T02:03:47;25.53;;;18.17;;
9288;SDS011;4683;50.864;12.086;2022-11-20T02:06:17;22.87;;;16.60;;
9288;SDS011;4683;50.864;12.086;2022-11-20T02:08:51;24.13;;;16.47;;
9288;SDS011;4683;50.864;12.086;2022-11-20T02:11:20;25.13;;;16.67;;
9288;SDS011;4683;50.864;12.086;2022-11-20T02:13:49;24.13;;;17.50;;
9288;SDS011;4683;50.864;12.086;2022-11-20T02:16:18;21.90;;;16.57;;
9288;SDS011;4683;50.864;12.086;2022-11-20T02:18:53;25.70;;;18.20;;
9288;SDS011;4683;50.864;12.086;2022-11-20T02:21:26;23.57;;;16.40;;
9288;SDS011;4683;50.864;12.086;2022-11-20T02:24:04;25.03;;;16.93;;
9288;SDS011;4683;50.864;12.086;2022-11-20T02:26:39;22.80;;;17.23;;
9288;SDS011;4683;50.864;12.086;2022-11-20T02:29:15;23.40;;;17.17;;
9288;SDS011;4683;50.864;12.086;2022-11-20T02:31:46;24.30;;;16.53;;
9288;SDS011;4683;50.864;12.086;2022-11-20T02:34:15;22.13;;;16.40;;
9288;SDS011;4683;50.864;12.086;2022-11-20T02:36:43;22.47;;;16.50;;
9288;SDS011;4683;50.864;12.086;2022-11-20T02:39:14;22.87;;;16.77;;
9288;SDS011;4683;50.864;12.086;2022-11-20T02:41:43;25.20;;;16.80;;
9288;SDS011;4683;50.864;12.086;2022-11-20T02:44:11;24.77;;;16.90;;
9288;SDS011;4683;50.864;12.086;2022-11-20T02:46:40;25.53;;;16.20;;
9288;SDS011;4683;50.864;12.086;2022-11-20T02:49:08;24.20;;;17.60;;
9288;SDS011;4683;50.864;12.086;2022-11-20T02:51:36;23.83;;;16.93;;
9288;SDS011;4683;50.864;12.086;2022-11-20T02:54:05;22.83;;;16.43;;
9288;SDS011;4683;50.864;12.086;2022-11-20T02:56:35;21.67;;;15.87;;
9288;SDS011;4683;50.864;12.086;2022-11-20T02:59:05;21.90;;;15.70;;
9288;SDS011;4683;50.864;12.086;2022-11-20T03:01:33;22.47;;;16.07;;
9288;SDS011;4683;50.864;12.086;2022-11-20T03:04:01;36.23;;;23.60;;
9288;SDS011;4683;50.864;12.086;2022-11-20T03:06:31;26.30;;;18.10;;
9288;SDS011;4683;50.864;12.086;2022-11-20T03:08:59;21.67;;;17.27;;
9288;SDS011;4683;50.864;12.086;2022-11-20T03:11:29;22.63;;;16.90;;
9288;SDS011;4683;50.864;12.086;2022-11-20T03:13:58;26.97;;;19.13;;
9288;SDS011;4683;50.864;12.086;2022-11-20T03:16:30;23.93;;;17.87;;
9288;SDS011;4683;50.864;12.086;2022-11-20T03:19:00;25.60;;;17.30;;
9288;SDS011;4683;50.864;12.086;2022-11-20T03:21:28;24.33;;;17.03;;
9288;SDS011;4683;50.864;12.086;2022-11-20T03:23:56;24.97;;;18.13;;
9288;SDS011;4683;50.864;12.086;2022-11-20T03:26:25;26.03;;;18.03;;
9288;SDS011;4683;50.864;12.086;2022-11-20T03:28:55;26.67;;;19.03;;
9288;SDS011;4683;50.864;12.086;2022-11-20T03:31:27;23.00;;;16.83;;
9288;SDS011;4683;50.864;12.086;2022-11-20T03:33:57;23.73;;;17.67;;
9288;SDS011;4683;50.864;12.086;2022-11-20T03:36:26;22.80;;;16.03;;
9288;SDS011;4683;50.864;12.086;2022-11-20T03:38:55;23.93;;;17.47;;
9288;SDS011;4683;50.864;12.086;2022-11-20T03:41:25;23.03;;;16.77;;
9288;SDS011;4683;50.864;12.086;2022-11-20T03:43:56;23.73;;;16.73;;
9288;SDS011;4683;50.864;12.086;2022-11-20T03:46:27;23.80;;;17.07;;
9288;SDS011;4683;50.864;12.086;2022-11-20T03:48:56;23.47;;;17.13;;
9288;SDS011;4683;50.864;12.086;2022-11-20T03:51:25;24.90;;;16.80;;
9288;SDS011;4683;50.864;12.086;2022-11-20T03:53:56;22.37;;;15.83;;
9288;SDS011;4683;50.864;12.086;2022-11-20T03:56:31;21.93;;;15.97;;
9288;SDS011;4683;50.864;12.086;2022-11-20T03:59:03;20.83;;;15.53;;
9288;SDS011;4683;50.864;12.086;2022-11-20T04:01:34;22.63;;;15.33;;
9288;SDS011;4683;50.864;12.086;2022-11-20T04:04:03;22.43;;;15.90;;
9288;SDS011;4683;50.864;12.086;2022-11-20T04:06:33;22.73;;;15.80;;
9288;SDS011;4683;50.864;12.086;2022-11-20T04:09:07;22.13;;;15.77;;
9288;SDS011;4683;50.864;12.086;2022-11-20T04:11:36;22.90;;;16.70;;
9288;SDS011;4683;50.864;12.086;2022-11-20T04:14:13;22.97;;;15.73;;
9288;SDS011;4683;50.864;12.086;2022-11-20T04:16:43;21.10;;;16.03;;
9288;SDS011;4683;50.864;12.086;2022-11-20T04:19:12;25.17;;;17.73;;
9288;SDS011;4683;50.864;12.086;2022-11-20T04:21:41;23.80;;;17.83;;
9288;SDS011;4683;50.864;12.086;2022-11-20T04:24:11;24.30;;;16.87;;
9288;SDS011;4683;50.864;12.086;2022-11-20T04:26:42;24.00;;;17.03;;
9288;SDS011;4683;50.864;12.086;2022-11-20T04:29:10;23.13;;;16.77;;
9288;SDS011;4683;50.864;12.086;2022-11-20T04:31:40;24.60;;;17.63;;
9288;SDS011;4683;50.864;12.086;2022-11-20T04:34:12;21.67;;;15.60;;
9288;SDS011;4683;50.864;12.086;2022-11-20T04:36:40;22.03;;;15.80;;
9288;SDS011;4683;50.864;12.086;2022-11-20T04:39:11;26.50;;;16.07;;
9288;SDS011;4683;50.864;12.086;2022-11-20T04:41:43;22.17;;;15.47;;
9288;SDS011;4683;50.864;12.086;2022-11-20T04:44:13;24.17;;;16.10;;
9288;SDS011;4683;50.864;12.086;2022-11-20T04:46:42;20.90;;;16.00;;
9288;SDS011;4683;50.864;12.086;2022-11-20T04:49:10;20.83;;;15.20;;
9288;SDS011;4683;50.864;12.086;2022-11-20T04:51:39;21.53;;;14.83;;
9288;SDS011;4683;50.864;12.086;2022-11-20T04:54:07;20.63;;;15.50;;
9288;SDS011;4683;50.864;12.086;2022-11-20T04:56:37;21.50;;;15.70;;
9288;SDS011;4683;50.864;12.086;2022-11-20T04:59:07;23.60;;;16.40;;
9288;SDS011;4683;50.864;12.086;2022-11-20T05:01:37;21.80;;;15.40;;
9288;SDS011;4683;50.864;12.086;2022-11-20T05:04:05;20.23;;;15.03;;
9288;SDS011;4683;50.864;12.086;2022-11-20T05:06:33;19.43;;;15.33;;
9288;SDS011;4683;50.864;12.086;2022-11-20T05:09:05;21.43;;;15.80;;
9288;SDS011;4683;50.864;12.086;2022-11-20T05:11:33;20.23;;;15.27;;
9288;SDS011;4683;50.864;12.086;2022-11-20T05:14:01;21.97;;;14.53;;
9288;SDS011;4683;50.864;12.086;2022-11-20T05:16:29;21.90;;;14.77;;
9288;SDS011;4683;50.864;12.086;2022-11-20T05:18:59;22.70;;;14.47;;
9288;SDS011;4683;50.864;12.086;2022-11-20T05:21:29;19.80;;;15.03;;
9288;SDS011;4683;50.864;12.086;2022-11-20T05:23:58;21.17;;;15.27;;
9288;SDS011;4683;50.864;12.086;2022-11-20T05:26:26;19.87;;;14.83;;
9288;SDS011;4683;50.864;12.086;2022-11-20T05:28:55;18.97;;;14.50;;
9288;SDS011;4683;50.864;12.086;2022-11-20T05:31:24;18.97;;;14.27;;
9288;SDS011;4683;50.864;12.086;2022-11-20T05:33:52;20.90;;;14.73;;
9288;SDS011;4683;50.864;12.086;2022-11-20T05:36:24;21.77;;;14.97;;
9288;SDS011;4683;50.864;12.086;2022-11-20T05:38:52;22.50;;;15.83;;
9288;SDS011;4683;50.864;12.086;2022-11-20T05:41:20;19.87;;;14.90;;
9288;SDS011;4683;50.864;12.086;2022-11-20T05:43:50;24.23;;;16.53;;
9288;SDS011;4683;50.864;12.086;2022-11-20T05:46:19;24.97;;;17.60;;
9288;SDS011;4683;50.864;12.086;2022-11-20T05:48:48;23.00;;;17.27;;
9288;SDS011;4683;50.864;12.086;2022-11-20T05:51:17;24.10;;;15.97;;
9288;SDS011;4683;50.864;12.086;2022-11-20T05:53:48;20.67;;;14.93;;
9288;SDS011;4683;50.864;12.086;2022-11-20T05:56:17;22.63;;;16.90;;
9288;SDS011;4683;50.864;12.086;2022-11-20T05:58:46;23.37;;;16.40;;
9288;SDS011;4683;50.864;12.086;2022-11-20T06:01:16;23.47;;;16.07;;
9288;SDS011;4683;50.864;12.086;2022-11-20T06:03:45;23.47;;;17.23;;
9288;SDS011;4683;50.864;12.086;2022-11-20T06:06:16;23.13;;;16.77;;
9288;SDS011;4683;50.864;12.086;2022-11-20T06:08:45;25.33;;;16.10;;
9288;SDS011;4683;50.864;12.086;2022-11-20T06:11:16;23.23;;;17.27;;
9288;SDS011;4683;50.864;12.086;2022-11-20T06:13:44;26.33;;;17.47;;
9288;SDS011;4683;50.864;12.086;2022-11-20T06:16:17;22.97;;;15.67;;
9288;SDS011;4683;50.864;12.086;2022-11-20T06:18:47;22.83;;;17.00;;
9288;SDS011;4683;50.864;12.086;2022-11-20T06:21:16;24.03;;;17.33;;
9288;SDS011;4683;50.864;12.086;2022-11-20T06:23:48;30.60;;;19.73;;
9288;SDS011;4683;50.864;12.086;2022-11-20T06:26:18;26.97;;;18.17;;
9288;SDS011;4683;50.864;12.086;2022-11-20T06:28:48;26.90;;;18.43;;
9288;SDS011;4683;50.864;12.086;2022-11-20T06:31:19;26.03;;;18.57;;
9288;SDS011;4683;50.864;12.086;2022-11-20T06:33:49;27.23;;;18.40;;
9288;SDS011;4683;50.864;12.086;2022-11-20T06:36:19;22.70;;;16.63;;
9288;SDS011;4683;50.864;12.086;2022-11-20T06:38:50;22.53;;;16.43;;
9288;SDS011;4683;50.864;12.086;2022-11-20T06:41:19;22.97;;;17.20;;
9288;SDS011;4683;50.864;12.086;2022-11-20T06:43:48;22.60;;;16.13;;
9288;SDS011;4683;50.864;12.086;2022-11-20T06:46:19;24.80;;;17.00;;
9288;SDS011;4683;50.864;12.086;2022-11-20T06:48:47;20.83;;;15.03;;
9288;SDS011;4683;50.864;12.086;2022-11-20T06:51:17;23.77;;;15.20;;
9288;SDS011;4683;50.864;12.086;2022-11-20T06:53:45;23.13;;;16.53;;
9288;SDS011;4683;50.864;12.086;2022-11-20T06:56:15;21.83;;;16.63;;
9288;SDS011;4683;50.864;12.086;2022-11-20T06:58:44;25.77;;;17.07;;
9288;SDS011;4683;50.864;12.086;2022-11-20T07:01:12;25.30;;;16.47;;
9288;SDS011;4683;50.864;12.086;2022-11-20T07:03:44;21.47;;;15.87;;
9288;SDS011;4683;50.864;12.086;2022-11-20T07:06:16;20.93;;;15.17;;
9288;SDS011;4683;50.864;12.086;2022-11-20T07:08:44;23.27;;;15.83;;
9288;SDS011;4683;50.864;12.086;2022-11-20T07:11:13;21.53;;;14.97;;
9288;SDS011;4683;50.864;12.086;2022-11-20T07:13:42;22.13;;;15.63;;
9288;SDS011;4683;50.864;12.086;2022-11-20T07:16:11;24.47;;;17.87;;
9288;SDS011;4683;50.864;12.086;2022-11-20T07:18:39;24.00;;;17.07;;
9288;SDS011;4683;50.864;12.086;2022-11-20T07:21:08;23.87;;;16.93;;
9288;SDS011;4683;50.864;12.086;2022-11-20T07:23:41;25.20;;;16.20;;
9288;SDS011;4683;50.864;12.086;2022-11-20T07:26:09;22.47;;;15.33;;
9288;SDS011;4683;50.864;12.086;2022-11-20T07:28:39;27.33;;;17.43;;
9288;SDS011;4683;50.864;12.086;2022-11-20T07:31:12;31.00;;;20.03;;
9288;SDS011;4683;50.864;12.086;2022-11-20T07:33:40;26.00;;;18.87;;
9288;SDS011;4683;50.864;12.086;2022-11-20T07:36:08;23.67;;;17.07;;
9288;SDS011;4683;50.864;12.086;2022-11-20T07:38:38;23.77;;;17.00;;
9288;SDS011;4683;50.864;12.086;2022-11-20T07:41:06;27.03;;;19.20;;
9288;SDS011;4683;50.864;12.086;2022-11-20T07:43:35;29.70;;;20.00;;
9288;SDS011;4683;50.864;12.086;2022-11-20T07:46:04;26.73;;;18.27;;
9288;SDS011;4683;50.864;12.086;2022-11-20T07:48:33;25.10;;;18.60;;
9288;SDS011;4683;50.864;12.086;2022-11-20T07:51:02;23.10;;;18.07;;
9288;SDS011;4683;50.864;12.086;2022-11-20T07:53:30;25.40;;;18.67;;
9288;SDS011;4683;50.864;12.086;2022-11-20T07:55:59;24.10;;;17.77;;
9288;SDS011;4683;50.864;12.086;2022-11-20T07:58:29;24.60;;;18.70;;
9288;SDS011;4683;50.864;12.086;2022-11-20T08:01:01;25.43;;;18.00;;
9288;SDS011;4683;50.864;12.086;2022-11-20T08:03:32;24.63;;;16.97;;
9288;SDS011;4683;50.864;12.086;2022-11-20T08:06:03;24.10;;;17.43;;
9288;SDS011;4683;50.864;12.086;2022-11-20T08:08:32;24.00;;;16.97;;
9288;SDS011;4683;50.864;12.086;2022-11-20T08:11:01;22.67;;;17.27;;
9288;SDS011;4683;50.864;12.086;2022-11-20T08:13:46;24.03;;;17.20;;
9288;SDS011;4683;50.864;12.086;2022-11-20T08:16:43;31.03;;;18.07;;
9288;SDS011;4683;50.864;12.086;2022-11-20T08:19:13;25.20;;;17.63;;
9288;SDS011;4683;50.864;12.086;2022-11-20T08:21:42;25.13;;;17.30;;
9288;SDS011;4683;50.864;12.086;2022-11-20T08:24:11;26.57;;;18.63;;
9288;SDS011;4683;50.864;12.086;2022-11-20T08:26:40;23.97;;;18.00;;
9288;SDS011;4683;50.864;12.086;2022-11-20T08:29:08;24.57;;;18.40;;
9288;SDS011;4683;50.864;12.086;2022-11-20T08:31:36;27.57;;;17.37;;
9288;SDS011;4683;50.864;12.086;2022-11-20T08:34:06;23.07;;;17.10;;
9288;SDS011;4683;50.864;12.086;2022-11-20T08:36:34;23.80;;;17.10;;
9288;SDS011;4683;50.864;12.086;2022-11-20T08:39:03;24.20;;;18.03;;
9288;SDS011;4683;50.864;12.086;2022-11-20T08:41:31;25.53;;;18.10;;
9288;SDS011;4683;50.864;12.086;2022-11-20T08:44:01;22.10;;;15.60;;
9288;SDS011;4683;50.864;12.086;2022-11-20T08:46:33;22.43;;;14.63;;
9288;SDS011;4683;50.864;12.086;2022-11-20T08:49:03;22.70;;;16.80;;
9288;SDS011;4683;50.864;12.086;2022-11-20T08:51:34;23.97;;;17.30;;
9288;SDS011;4683;50.864;12.086;2022-11-20T08:54:03;25.57;;;17.93;;
9288;SDS011;4683;50.864;12.086;2022-11-20T08:56:33;25.63;;;18.40;;
9288;SDS011;4683;50.864;12.086;2022-11-20T08:59:01;26.43;;;18.00;;
9288;SDS011;4683;50.864;12.086;2022-11-20T09:01:29;28.57;;;18.40;;
9288;SDS011;4683;50.864;12.086;2022-11-20T09:04:02;26.83;;;17.60;;
9288;SDS011;4683;50.864;12.086;2022-11-20T09:06:32;24.03;;;16.50;;
9288;SDS011;4683;50.864;12.086;2022-11-20T09:09:00;19.83;;;13.93;;
9288;SDS011;4683;50.864;12.086;2022-11-20T09:11:29;24.27;;;15.23;;
9288;SDS011;4683;50.864;12.086;2022-11-20T09:13:57;26.60;;;16.80;;
9288;SDS011;4683;50.864;12.086;2022-11-20T09:16:25;23.37;;;16.83;;
9288;SDS011;4683;50.864;12.086;2022-11-20T09:18:55;23.33;;;16.97;;
9288;SDS011;4683;50.864;12.086;2022-11-20T09:21:23;25.33;;;16.03;;
9288;SDS011;4683;50.864;12.086;2022-11-20T09:23:53;23.30;;;15.00;;
9288;SDS011;4683;50.864;12.086;2022-11-20T09:26:21;21.83;;;16.10;;
9288;SDS011;4683;50.864;12.086;2022-11-20T09:28:49;23.53;;;16.40;;
9288;SDS011;4683;50.864;12.086;2022-11-20T09:31:19;22.87;;;14.40;;
9288;SDS011;4683;50.864;12.086;2022-11-20T09:33:54;20.80;;;14.10;;
9288;SDS011;4683;50.864;12.086;2022-11-20T09:36:22;16.90;;;11.00;;
9288;SDS011;4683;50.864;12.086;2022-11-20T09:38:50;17.03;;;11.60;;
9288;SDS011;4683;50.864;12.086;2022-11-20T09:44:40;19.80;;;13.03;;
9288;SDS011;4683;50.864;12.086;2022-11-20T09:47:30;16.23;;;11.17;;
9288;SDS011;4683;50.864;12.086;2022-11-20T09:50:17;21.07;;;13.73;;
9288;SDS011;4683;50.864;12.086;2022-11-20T09:53:01;16.17;;;11.83;;
9288;SDS011;4683;50.864;12.086;2022-11-20T09:55:46;17.33;;;12.13;;
9288;SDS011;4683;50.864;12.086;2022-11-20T09:58:16;16.50;;;12.20;;
9288;SDS011;4683;50.864;12.086;2022-11-20T10:00:59;19.23;;;13.67;;
9288;SDS011;4683;50.864;12.086;2022-11-20T10:03:40;17.50;;;11.83;;
9288;SDS011;4683;50.864;12.086;2022-11-20T10:06:21;18.23;;;12.80;;
9288;SDS011;4683;50.864;12.086;2022-11-20T10:08:58;16.97;;;11.73;;
9288;SDS011;4683;50.864;12.086;2022-11-20T10:11:46;18.83;;;13.67;;
9288;SDS011;4683;50.864;12.086;2022-11-20T10:14:32;14.87;;;12.07;;
9288;SDS011;4683;50.864;12.086;2022-11-20T10:17:17;18.87;;;11.87;;
9288;SDS011;4683;50.864;12.086;2022-11-20T10:20:03;16.07;;;12.47;;
9288;SDS011;4683;50.864;12.086;2022-11-20T10:22:53;19.10;;;15.03;;
9288;SDS011;4683;50.864;12.086;2022-11-20T10:25:42;19.13;;;14.70;;
9288;SDS011;4683;50.864;12.086;2022-11-20T10:28:24;17.87;;;13.10;;
9288;SDS011;4683;50.864;12.086;2022-11-20T10:31:14;18.20;;;12.07;;
9288;SDS011;4683;50.864;12.086;2022-11-20T10:33:56;16.20;;;12.07;;
9288;SDS011;4683;50.864;12.086;2022-11-20T10:36:28;15.50;;;12.07;;
9288;SDS011;4683;50.864;12.086;2022-11-20T10:39:04;20.00;;;14.07;;
9288;SDS011;4683;50.864;12.086;2022-11-20T10:41:42;18.83;;;13.40;;
9288;SDS011;4683;50.864;12.086;2022-11-20T10:44:16;19.00;;;13.30;;
9288;SDS011;4683;50.864;12.086;2022-11-20T10:47:11;17.57;;;13.80;;
9288;SDS011;4683;50.864;12.086;2022-11-20T10:49:42;19.47;;;13.30;;
9288;SDS011;4683;50.864;12.086;2022-11-20T10:52:16;19.10;;;14.20;;
9288;SDS011;4683;50.864;12.086;2022-11-20T10:54:56;17.10;;;13.27;;
9288;SDS011;4683;50.864;12.086;2022-11-20T10:57:38;18.30;;;14.03;;
9288;SDS011;4683;50.864;12.086;2022-11-20T11:00:22;19.77;;;15.03;;
9288;SDS011;4683;50.864;12.086;2022-11-20T11:02:50;19.93;;;14.97;;
9288;SDS011;4683;50.864;12.086;2022-11-20T11:05:22;19.17;;;14.77;;
9288;SDS011;4683;50.864;12.086;2022-11-20T11:08:09;18.40;;;14.00;;
9288;SDS011;4683;50.864;12.086;2022-11-20T11:10:43;19.03;;;15.37;;
9288;SDS011;4683;50.864;12.086;2022-11-20T11:13:19;20.23;;;14.17;;
9288;SDS011;4683;50.864;12.086;2022-11-20T11:15:51;20.07;;;14.33;;
9288;SDS011;4683;50.864;12.086;2022-11-20T11:18:24;23.03;;;18.03;;
9288;SDS011;4683;50.864;12.086;2022-11-20T11:20:55;19.73;;;15.83;;
9288;SDS011;4683;50.864;12.086;2022-11-20T11:23:32;23.13;;;16.03;;
9288;SDS011;4683;50.864;12.086;2022-11-20T11:26:04;23.33;;;16.93;;
9288;SDS011;4683;50.864;12.086;2022-11-20T11:28:52;20.97;;;15.57;;
9288;SDS011;4683;50.864;12.086;2022-11-20T11:31:25;23.27;;;18.13;;
9288;SDS011;4683;50.864;12.086;2022-11-20T11:34:05;24.50;;;19.30;;
9288;SDS011;4683;50.864;12.086;2022-11-20T11:36:34;24.90;;;17.60;;
9288;SDS011;4683;50.864;12.086;2022-11-20T11:39:03;23.70;;;18.07;;
9288;SDS011;4683;50.864;12.086;2022-11-20T11:41:38;24.20;;;18.03;;
9288;SDS011;4683;50.864;12.086;2022-11-20T11:44:14;18.30;;;14.43;;
9288;SDS011;4683;50.864;12.086;2022-11-20T11:47:05;19.37;;;14.80;;
9288;SDS011;4683;50.864;12.086;2022-11-20T11:49:38;18.90;;;14.73;;
9288;SDS011;4683;50.864;12.086;2022-11-20T11:52:09;19.20;;;14.23;;
9288;SDS011;4683;50.864;12.086;2022-11-20T11:54:43;19.30;;;14.97;;
9288;SDS011;4683;50.864;12.086;2022-11-20T12:00:09;19.20;;;15.00;;
9288;SDS011;4683;50.864;12.086;2022-11-20T12:02:42;17.40;;;14.60;;
9288;SDS011;4683;50.864;12.086;2022-11-20T12:05:28;17.20;;;12.90;;
9288;SDS011;4683;50.864;12.086;2022-11-20T12:08:03;18.60;;;14.40;;
9288;SDS011;4683;50.864;12.086;2022-11-20T12:10:44;18.40;;;14.97;;
9288;SDS011;4683;50.864;12.086;2022-11-20T12:13:26;17.63;;;14.27;;
9288;SDS011;4683;50.864;12.086;2022-11-20T12:16:07;22.40;;;17.17;;
9288;SDS011;4683;50.864;12.086;2022-11-20T12:18:40;19.27;;;15.00;;
9288;SDS011;4683;50.864;12.086;2022-11-20T12:21:12;20.10;;;15.57;;
9288;SDS011;4683;50.864;12.086;2022-11-20T12:23:51;19.00;;;14.47;;
9288;SDS011;4683;50.864;12.086;2022-11-20T12:26:44;18.00;;;12.70;;
9288;SDS011;4683;50.864;12.086;2022-11-20T12:29:29;12.20;;;7.83;;
9288;SDS011;4683;50.864;12.086;2022-11-20T12:32:25;14.40;;;11.90;;
9288;SDS011;4683;50.864;12.086;2022-11-20T12:35:35;14.27;;;11.47;;
9288;SDS011;4683;50.864;12.086;2022-11-20T12:38:38;15.63;;;11.83;;
9288;SDS011;4683;50.864;12.086;2022-11-20T12:41:37;10.77;;;8.60;;
9288;SDS011;4683;50.864;12.086;2022-11-20T12:44:42;15.47;;;11.13;;
9288;SDS011;4683;50.864;12.086;2022-11-20T12:50:42;18.07;;;14.00;;
9288;SDS011;4683;50.864;12.086;2022-11-20T12:53:23;17.23;;;12.97;;
9288;SDS011;4683;50.864;12.086;2022-11-20T12:56:00;18.37;;;14.30;;
9288;SDS011;4683;50.864;12.086;2022-11-20T12:58:42;19.30;;;15.10;;
9288;SDS011;4683;50.864;12.086;2022-11-20T13:01:25;18.53;;;14.80;;
9288;SDS011;4683;50.864;12.086;2022-11-20T13:04:18;17.67;;;13.87;;
9288;SDS011;4683;50.864;12.086;2022-11-20T13:07:13;18.53;;;13.73;;
9288;SDS011;4683;50.864;12.086;2022-11-20T13:09:44;16.37;;;12.77;;
9288;SDS011;4683;50.864;12.086;2022-11-20T13:12:18;15.53;;;12.63;;
9288;SDS011;4683;50.864;12.086;2022-11-20T13:14:53;17.20;;;13.53;;
9288;SDS011;4683;50.864;12.086;2022-11-20T13:17:28;15.53;;;10.83;;
9288;SDS011;4683;50.864;12.086;2022-11-20T13:20:04;9.73;;;7.97;;
9288;SDS011;4683;50.864;12.086;2022-11-20T13:22:45;10.97;;;8.30;;
9288;SDS011;4683;50.864;12.086;2022-11-20T13:25:23;12.63;;;9.57;;
9288;SDS011;4683;50.864;12.086;2022-11-20T13:27:53;14.13;;;9.00;;
9288;SDS011;4683;50.864;12.086;2022-11-20T13:30:23;12.77;;;10.20;;
9288;SDS011;4683;50.864;12.086;2022-11-20T13:32:53;12.40;;;8.10;;
9288;SDS011;4683;50.864;12.086;2022-11-20T13:35:26;11.10;;;7.90;;
9288;SDS011;4683;50.864;12.086;2022-11-20T13:38:03;10.50;;;8.43;;
9288;SDS011;4683;50.864;12.086;2022-11-20T13:40:37;11.93;;;8.90;;
9288;SDS011;4683;50.864;12.086;2022-11-20T13:43:23;12.40;;;9.83;;
9288;SDS011;4683;50.864;12.086;2022-11-20T13:46:02;14.53;;;10.10;;
9288;SDS011;4683;50.864;12.086;2022-11-20T13:48:33;13.33;;;10.43;;
9288;SDS011;4683;50.864;12.086;2022-11-20T13:51:22;14.40;;;10.93;;
9288;SDS011;4683;50.864;12.086;2022-11-20T13:57:25;14.03;;;10.40;;
9288;SDS011;4683;50.864;12.086;2022-11-20T14:00:41;15.30;;;11.17;;
9288;SDS011;4683;50.864;12.086;2022-11-20T14:03:17;12.87;;;10.40;;
9288;SDS011;4683;50.864;12.086;2022-11-20T14:05:50;15.07;;;11.63;;
9288;SDS011;4683;50.864;12.086;2022-11-20T14:08:27;16.07;;;11.37;;
9288;SDS011;4683;50.864;12.086;2022-11-20T14:11:12;14.90;;;11.17;;
9288;SDS011;4683;50.864;12.086;2022-11-20T14:14:00;14.57;;;10.23;;
9288;SDS011;4683;50.864;12.086;2022-11-20T14:16:31;14.83;;;11.50;;
9288;SDS011;4683;50.864;12.086;2022-11-20T14:22:07;15.73;;;11.07;;
9288;SDS011;4683;50.864;12.086;2022-11-20T14:24:44;15.13;;;10.53;;
9288;SDS011;4683;50.864;12.086;2022-11-20T14:27:17;12.43;;;9.20;;
9288;SDS011;4683;50.864;12.086;2022-11-20T14:29:48;12.13;;;9.17;;
9288;SDS011;4683;50.864;12.086;2022-11-20T14:32:17;13.93;;;10.67;;
9288;SDS011;4683;50.864;12.086;2022-11-20T14:34:49;13.63;;;10.03;;
9288;SDS011;4683;50.864;12.086;2022-11-20T14:37:19;15.60;;;11.57;;
9288;SDS011;4683;50.864;12.086;2022-11-20T14:39:52;12.50;;;9.23;;
9288;SDS011;4683;50.864;12.086;2022-11-20T14:42:24;13.20;;;9.97;;
9288;SDS011;4683;50.864;12.086;2022-11-20T14:44:54;13.27;;;9.80;;
9288;SDS011;4683;50.864;12.086;2022-11-20T14:47:24;8.40;;;6.20;;
9288;SDS011;4683;50.864;12.086;2022-11-20T14:49:54;8.47;;;5.80;;
9288;SDS011;4683;50.864;12.086;2022-11-20T14:52:25;10.23;;;7.03;;
9288;SDS011;4683;50.864;12.086;2022-11-20T14:54:57;14.23;;;8.17;;
9288;SDS011;4683;50.864;12.086;2022-11-20T14:57:28;15.77;;;11.10;;
9288;SDS011;4683;50.864;12.086;2022-11-20T15:00:06;17.23;;;11.13;;
9288;SDS011;4683;50.864;12.086;2022-11-20T15:02:48;18.17;;;12.57;;
9288;SDS011;4683;50.864;12.086;2022-11-20T15:05:18;18.57;;;12.80;;
9288;SDS011;4683;50.864;12.086;2022-11-20T15:07:48;18.23;;;12.67;;
9288;SDS011;4683;50.864;12.086;2022-11-20T15:10:20;17.47;;;12.50;;
9288;SDS011;4683;50.864;12.086;2022-11-20T15:12:59;17.77;;;11.87;;
9288;SDS011;4683;50.864;12.086;2022-11-20T15:15:32;17.43;;;12.03;;
9288;SDS011;4683;50.864;12.086;2022-11-20T15:18:09;18.63;;;12.77;;
9288;SDS011;4683;50.864;12.086;2022-11-20T15:20:42;17.73;;;12.53;;
9288;SDS011;4683;50.864;12.086;2022-11-20T15:23:11;19.30;;;13.63;;
9288;SDS011;4683;50.864;12.086;2022-11-20T15:25:40;16.57;;;12.60;;
9288;SDS011;4683;50.864;12.086;2022-11-20T15:28:15;24.43;;;15.67;;
9288;SDS011;4683;50.864;12.086;2022-11-20T15:30:48;20.93;;;15.33;;